Time;durP1;ratioP1;P1;durP2;ratioP2;P2;SDS_P1;SDS_P2;PMS_P1;PMS_P2;Temp;Humidity;BMP_temperature;BMP_pressure;BME280_temperature;BME280_humidity;BME280_pressure;Samples;Min_cycle;Max_cycle;Signal;HPM_P1;HPM_P2
2023/06/21 00:01:10;;;;;;;3.40;1.85;;;;;;;19.76;67.45;100297.88;10220864;28;96715;-81
2023/06/21 00:06:15;;;;;;;3.35;1.92;;;;;;;19.22;69.08;100294.00;10218983;28;96753;-82
2023/06/21 00:11:19;;;;;;;2.42;1.67;;;;;;;19.52;68.51;100293.53;10220066;28;96779;-81
2023/06/21 00:16:22;;;;;;;3.47;2.23;;;;;;;19.55;68.26;100285.28;10220122;28;96878;-81
2023/06/21 00:21:27;;;;;;;5.30;2.53;;;;;;;19.66;68.45;100280.00;10219555;28;96728;-81
2023/06/21 00:26:30;;;;;;;3.42;2.00;;;;;;;19.53;68.88;100279.25;10219052;28;96971;-81
2023/06/21 00:31:33;;;;;;;2.60;1.85;;;;;;;19.61;68.66;100279.50;10219415;28;96678;-81
2023/06/21 00:36:41;;;;;;;4.05;2.05;;;;;;;19.69;68.54;100277.94;10219006;28;96757;-81
2023/06/21 00:41:45;;;;;;;3.55;2.08;;;;;;;19.63;68.41;100270.41;10219757;28;96602;-82
2023/06/21 00:46:49;;;;;;;2.30;1.92;;;;;;;19.49;69.28;100273.28;10218914;28;96583;-82
2023/06/21 00:51:57;;;;;;;3.10;2.08;;;;;;;19.72;68.70;100275.03;10218783;28;96729;-81
2023/06/21 00:57:01;;;;;;;2.90;1.77;;;;;;;19.90;68.03;100256.75;10216008;28;96759;-81
2023/06/21 01:02:13;;;;;;;2.90;1.73;;;;;;;19.98;67.96;100252.50;10218530;28;96618;-82
2023/06/21 01:07:28;;;;;;;2.17;1.80;;;;;;;20.01;67.94;100270.97;10217601;28;97061;-82
2023/06/21 01:12:42;;;;;;;3.10;2.10;;;;;;;19.97;68.15;100256.16;10217908;28;96697;-81
2023/06/21 01:17:51;;;;;;;3.00;1.85;;;;;;;19.96;68.08;100249.09;10217474;28;96968;-81
2023/06/21 01:23:09;;;;;;;2.90;1.90;;;;;;;19.94;68.19;100247.53;10217319;28;96603;-81
2023/06/21 01:28:34;;;;;;;4.18;2.10;;;;;;;19.76;68.83;100244.47;10217532;28;96848;-82
2023/06/21 01:33:39;;;;;;;3.45;1.88;;;;;;;19.67;68.96;100246.97;10218096;28;96650;-81
2023/06/21 01:38:44;;;;;;;3.28;1.98;;;;;;;19.74;68.62;100240.19;10216986;28;96796;-81
2023/06/21 01:43:47;;;;;;;2.53;1.88;;;;;;;19.41;69.47;100242.81;10217080;28;96657;-81
2023/06/21 01:48:54;;;;;;;2.60;1.70;;;;;;;19.34;70.02;100242.38;10215379;28;97636;-82
2023/06/21 01:53:57;;;;;;;3.38;1.95;;;;;;;19.60;69.29;100238.59;10216452;28;96672;-82
2023/06/21 01:59:02;;;;;;;2.13;1.73;;;;;;;19.26;70.25;100234.97;10216303;28;96722;-82
2023/06/21 02:04:11;;;;;;;2.58;1.65;;;;;;;18.90;71.20;100239.53;10216871;28;97045;-82
2023/06/21 02:09:15;;;;;;;2.97;2.00;;;;;;;19.31;70.47;100237.28;10215917;28;96970;-81
2023/06/21 02:14:20;;;;;;;3.72;2.05;;;;;;;19.49;69.71;100227.06;10216087;28;97046;-82
2023/06/21 02:19:26;;;;;;;2.67;1.80;;;;;;;19.50;69.81;100229.59;10215978;28;96681;-82
2023/06/21 02:24:31;;;;;;;4.05;2.33;;;;;;;19.48;69.96;100238.69;10215711;28;96859;-82
2023/06/21 02:29:34;;;;;;;4.27;2.00;;;;;;;19.54;69.90;100233.75;10216080;28;96676;-82
2023/06/21 02:34:39;;;;;;;4.97;2.08;;;;;;;19.64;69.55;100232.06;10216084;28;97105;-82
2023/06/21 02:39:42;;;;;;;2.95;1.90;;;;;;;19.72;69.22;100235.00;10214643;28;96714;-82
2023/06/21 02:44:45;;;;;;;3.20;2.40;;;;;;;19.53;69.66;100233.88;10199575;22;97087;-82
2023/06/21 02:49:50;;;;;;;3.78;2.58;;;;;;;19.34;70.48;100231.69;10133511;28;96740;-81
2023/06/21 02:54:54;;;;;;;4.35;2.50;;;;;;;19.29;70.43;100231.19;10135374;28;98579;-82
2023/06/21 02:59:59;;;;;;;3.70;2.10;;;;;;;18.95;71.52;100229.38;10135262;28;96727;-82
2023/06/21 03:05:06;;;;;;;3.33;2.13;;;;;;;18.75;72.04;100206.00;10135324;28;96766;-82
2023/06/21 03:10:13;;;;;;;3.90;2.28;;;;;;;18.58;72.68;100199.22;10135092;28;96751;-82
2023/06/21 03:15:16;;;;;;;3.45;2.13;;;;;;;18.53;72.80;100211.19;10135412;28;97429;-82
2023/06/21 03:20:22;;;;;;;3.97;2.08;;;;;;;18.47;72.82;100199.16;10135870;28;96603;-82
2023/06/21 03:25:28;;;;;;;4.13;2.22;;;;;;;18.44;72.67;100191.34;10141185;28;97724;-82
2023/06/21 03:30:31;;;;;;;2.90;1.88;;;;;;;18.31;72.81;100193.22;10140563;28;96915;-81
2023/06/21 03:35:36;;;;;;;2.55;1.85;;;;;;;18.41;72.25;100190.72;10140977;28;96622;-82
2023/06/21 03:40:39;;;;;;;;;;;;;;;18.45;72.73;100193.06;10141352;28;96586;-82
2023/06/21 03:45:43;;;;;;;3.00;1.90;;;;;;;18.48;71.93;100184.03;10140880;28;96812;-82
2023/06/21 03:50:48;;;;;;;2.15;1.60;;;;;;;18.46;72.03;100175.25;10140711;28;96791;-82
2023/06/21 03:55:51;;;;;;;;;;;;;;;18.54;72.34;100186.25;10140724;28;97079;-82
2023/06/21 04:00:54;;;;;;;2.67;1.65;;;;;;;18.53;71.62;100192.53;10140629;28;96692;-82
2023/06/21 04:05:59;;;;;;;2.65;1.83;;;;;;;18.63;71.39;100185.56;10141020;28;96763;-82
2023/06/21 04:11:02;;;;;;;2.22;1.58;;;;;;;18.62;71.33;100189.19;10140293;28;96787;-81
2023/06/21 04:16:05;;;;;;;2.50;1.75;;;;;;;18.63;71.18;100197.06;10139399;28;96741;-81
2023/06/21 04:21:10;;;;;;;2.42;1.70;;;;;;;18.49;71.64;100191.91;10138838;28;97346;-81
2023/06/21 04:26:30;;;;;;;3.03;1.90;;;;;;;18.55;71.58;100187.94;10138203;28;96568;-82
2023/06/21 04:31:52;;;;;;;3.45;2.00;;;;;;;18.55;71.31;100194.13;10136715;28;97323;-82
2023/06/21 04:36:57;;;;;;;2.60;1.83;;;;;;;18.41;71.92;100206.72;10139149;28;97071;-81
2023/06/21 04:42:02;;;;;;;2.55;1.70;;;;;;;18.53;71.33;100205.84;10138930;28;96763;-82
2023/06/21 04:47:06;;;;;;;2.63;1.70;;;;;;;18.48;71.36;100206.19;10138845;28;96691;-82
2023/06/21 04:52:12;;;;;;;3.10;1.90;;;;;;;18.54;71.37;100207.56;10138999;28;96591;-82
2023/06/21 04:57:16;;;;;;;3.47;1.80;;;;;;;18.51;71.51;100202.44;10139139;28;96771;-82
2023/06/21 05:02:19;;;;;;;2.83;1.53;;;;;;;18.35;71.82;100209.84;10138730;28;96915;-82
2023/06/21 05:07:42;;;;;;;3.28;1.80;;;;;;;18.44;71.72;100210.00;10133696;28;96842;-82
2023/06/21 05:12:45;;;;;;;;;;;;;;;18.56;71.95;100210.97;10137447;28;96726;-82
2023/06/21 05:17:48;;;;;;;2.08;1.60;;;;;;;18.60;71.31;100215.97;10138045;28;96783;-82
2023/06/21 05:22:55;;;;;;;2.92;1.73;;;;;;;18.61;71.42;100219.50;10138164;28;97039;-82
2023/06/21 05:27:58;;;;;;;3.60;1.90;;;;;;;18.56;71.63;100222.47;10137737;28;96812;-82
2023/06/21 05:33:19;;;;;;;2.28;1.50;;;;;;;18.63;71.93;100221.06;10136158;28;96620;-82
2023/06/21 05:38:24;;;;;;;2.25;1.45;;;;;;;18.59;72.28;100221.41;10137384;28;97091;-82
2023/06/21 05:43:27;;;;;;;;;;;;;;;18.82;72.31;100224.09;10137148;28;96880;-82
2023/06/21 05:48:30;;;;;;;3.08;1.80;;;;;;;18.86;71.44;100235.38;10136168;28;96791;-82
2023/06/21 05:53:35;;;;;;;2.63;1.70;;;;;;;18.91;71.26;100242.06;10137041;28;96882;-82
2023/06/21 05:58:55;;;;;;;3.13;1.98;;;;;;;18.88;71.24;100247.63;10130729;28;96783;-82
2023/06/21 06:04:16;;;;;;;2.97;1.73;;;;;;;18.78;71.82;100251.91;10129617;28;96669;-82
2023/06/21 06:09:21;;;;;;;2.65;1.67;;;;;;;18.68;72.05;100252.72;10097135;28;96677;-82
2023/06/21 06:14:41;;;;;;;2.63;1.45;;;;;;;18.79;71.69;100260.78;10094974;28;96972;-82
2023/06/21 06:20:05;;;;;;;2.13;1.40;;;;;;;18.70;71.68;100258.78;10090829;28;96653;-82
2023/06/21 06:25:27;;;;;;;2.88;1.83;;;;;;;18.81;71.78;100264.19;10124623;28;96735;-82
2023/06/21 06:30:30;;;;;;;;;;;;;;;18.92;71.98;100262.44;10136622;28;96636;-82
2023/06/21 06:35:33;;;;;;;2.83;1.70;;;;;;;19.00;71.16;100269.88;10136189;28;96739;-82
2023/06/21 06:40:56;;;;;;;2.90;1.83;;;;;;;19.26;70.62;100279.47;10136332;28;96718;-82
2023/06/21 06:45:59;;;;;;;3.15;1.60;;;;;;;19.27;70.88;100281.16;10135295;28;96800;-82
2023/06/21 06:51:02;;;;;;;3.60;1.80;;;;;;;19.27;71.02;100286.50;10135656;28;96800;-82
2023/06/21 06:56:07;;;;;;;3.45;1.95;;;;;;;19.42;70.75;100281.88;10136216;28;96984;-82
2023/06/21 07:01:10;;;;;;;3.25;1.50;;;;;;;19.34;70.90;100285.06;10142344;28;96825;-82
2023/06/21 07:06:14;;;;;;;2.30;1.60;;;;;;;19.32;71.17;100288.84;10142270;28;96809;-82
2023/06/21 07:11:19;;;;;;;3.53;1.83;;;;;;;19.33;71.17;100290.53;10142191;28;96799;-82
2023/06/21 07:16:42;;;;;;;4.30;1.88;;;;;;;19.49;70.52;100308.00;10140840;28;96887;-82
2023/06/21 07:21:45;;;;;;;3.05;1.85;;;;;;;19.64;70.28;100300.63;10141762;28;96774;-82
2023/06/21 07:26:50;;;;;;;4.15;2.25;;;;;;;19.73;70.10;100303.47;10141649;28;97088;-82
2023/06/21 07:31:54;;;;;;;2.88;1.50;;;;;;;20.06;69.19;100305.34;10141964;28;97307;-82
2023/06/21 07:36:58;;;;;;;3.35;1.90;;;;;;;20.08;69.23;100306.91;10141223;28;96748;-82
2023/06/21 07:42:07;;;;;;;2.70;1.67;;;;;;;19.84;69.93;100302.63;10140735;28;96702;-82
2023/06/21 07:47:16;;;;;;;4.63;2.00;;;;;;;19.67;70.35;100298.56;10139245;28;96742;-82
2023/06/21 07:52:19;;;;;;;2.45;1.90;;;;;;;19.56;70.50;100298.56;10140946;28;96836;-81
2023/06/21 07:57:24;;;;;;;2.90;1.92;;;;;;;19.50;70.46;100303.47;10140578;28;96723;-82
2023/06/21 08:02:27;;;;;;;2.88;1.77;;;;;;;19.61;70.23;100319.56;10140547;28;96770;-82
2023/06/21 08:07:48;;;;;;;4.25;1.80;;;;;;;19.71;69.78;100304.53;10139118;28;96766;-82
2023/06/21 08:13:11;;;;;;;2.92;1.60;;;;;;;19.95;69.49;100292.81;10137806;28;96993;-82
2023/06/21 08:18:14;;;;;;;2.70;1.80;;;;;;;20.15;69.22;100302.78;10139938;28;96708;-82
2023/06/21 08:23:34;;;;;;;2.70;1.80;;;;;;;20.14;69.40;100294.91;10135778;28;96854;-82
2023/06/21 08:28:39;;;;;;;3.17;1.98;;;;;;;20.44;68.23;100289.00;10139836;28;96730;-81
2023/06/21 08:33:42;;;;;;;2.90;1.90;;;;;;;20.60;67.55;100282.28;10139587;28;96915;-81
2023/06/21 08:38:46;;;;;;;3.55;1.83;;;;;;;20.74;66.60;100281.22;10137836;28;96927;-82
2023/06/21 08:43:51;;;;;;;2.00;1.55;;;;;;;21.04;66.13;100268.84;10138707;28;96905;-82
2023/06/21 08:49:16;;;;;;;2.35;1.63;;;;;;;21.02;65.88;100260.09;10131522;28;98326;-81
2023/06/21 08:54:25;;;;;;;3.83;1.70;;;;;;;21.09;65.70;100249.72;10138537;28;96713;-82
2023/06/21 08:59:35;;;;;;;2.47;1.70;;;;;;;21.09;66.21;100247.03;10138985;28;96736;-81
2023/06/21 09:04:44;;;;;;;2.85;1.80;;;;;;;21.32;65.30;100251.38;10138701;28;96945;-82
2023/06/21 09:10:06;;;;;;;2.13;1.58;;;;;;;21.58;64.77;100243.81;10134722;28;96725;-82
2023/06/21 09:15:13;;;;;;;3.17;1.80;;;;;;;22.00;63.09;100233.00;10138482;28;96899;-82
2023/06/21 09:20:18;;;;;;;4.00;1.70;;;;;;;22.00;62.91;100230.31;10137302;28;96786;-81
2023/06/21 09:25:39;;;;;;;2.35;1.75;;;;;;;22.21;62.34;100224.91;10137998;28;96977;-82
2023/06/21 09:30:44;;;;;;;2.67;1.77;;;;;;;22.64;61.26;100220.94;10136916;28;97156;-82
2023/06/21 09:35:48;;;;;;;2.50;1.70;;;;;;;23.22;60.19;100219.19;10137655;28;96728;-81
2023/06/21 09:40:51;;;;;;;2.47;1.80;;;;;;;23.23;60.14;100218.19;10137202;28;96820;-81
2023/06/21 09:46:04;;;;;;;2.40;1.80;;;;;;;23.53;59.74;100220.72;10136721;28;97096;-82
2023/06/21 09:51:12;;;;;;;3.55;1.73;;;;;;;23.69;58.65;100212.97;10137134;28;96834;-82
2023/06/21 09:56:18;;;;;;;2.88;1.60;;;;;;;23.94;58.84;100221.38;10137148;28;96665;-82
2023/06/21 10:01:44;;;;;;;2.87;1.60;;;;;;;24.40;57.65;100229.44;10131125;28;96687;-81
2023/06/21 10:07:05;;;;;;;2.22;1.52;;;;;;;24.78;56.76;100235.47;10131381;28;96851;-82
2023/06/21 10:12:10;;;;;;;3.33;1.80;;;;;;;24.74;55.64;100226.00;10136624;28;96824;-81
2023/06/21 10:17:16;;;;;;;3.05;1.70;;;;;;;25.39;55.47;100224.84;10136102;28;96823;-81
2023/06/21 10:22:21;;;;;;;2.70;2.00;;;;;;;24.89;55.27;100233.56;10135357;28;96804;-82
2023/06/21 10:27:26;;;;;;;2.78;1.92;;;;;;;24.53;55.39;100238.03;10136220;28;96697;-81
2023/06/21 10:32:35;;;;;;;3.20;2.20;;;;;;;24.64;54.72;100237.81;10141818;28;96774;-81
2023/06/21 10:37:50;;;;;;;2.67;1.75;;;;;;;24.82;54.30;100238.72;10142971;28;97232;-81
2023/06/21 10:42:55;;;;;;;2.78;1.95;;;;;;;25.06;54.02;100238.16;10142671;28;96789;-81
2023/06/21 10:48:18;;;;;;;2.83;2.03;;;;;;;25.32;53.81;100241.75;10143238;28;97091;-81
2023/06/21 10:53:23;;;;;;;2.88;1.95;;;;;;;25.53;53.00;100240.47;10142295;28;96867;-81
2023/06/21 10:58:26;;;;;;;2.75;1.83;;;;;;;25.81;51.86;100243.91;10142973;28;96835;-81
2023/06/21 11:03:31;;;;;;;2.60;1.80;;;;;;;26.29;52.07;100251.44;10142120;28;97101;-81
2023/06/21 11:08:52;;;;;;;2.80;2.13;;;;;;;26.17;52.54;100245.47;10136086;28;96588;-81
2023/06/21 11:13:55;;;;;;;2.95;1.92;;;;;;;26.34;52.45;100246.41;10140358;28;96725;-81
2023/06/21 11:19:18;;;;;;;3.83;2.00;;;;;;;26.29;51.85;100233.41;10140614;28;96879;-81
2023/06/21 11:24:22;;;;;;;3.65;1.80;;;;;;;26.12;52.97;100234.34;10141483;28;96721;-82
2023/06/21 11:29:40;;;;;;;3.42;1.98;;;;;;;25.88;52.84;100229.63;10141456;28;96812;-82
2023/06/21 11:35:08;;;;;;;3.13;2.50;;;;;;;26.59;52.85;100219.38;10138794;28;96827;-81
2023/06/21 11:40:14;;;;;;;3.78;2.42;;;;;;;26.02;52.21;100225.50;10140959;28;96826;-81
2023/06/21 11:45:23;;;;;;;4.38;2.38;;;;;;;26.14;52.09;100226.94;10140151;28;97118;-82
2023/06/21 11:50:48;;;;;;;4.57;2.53;;;;;;;26.40;50.39;100225.03;10139989;28;96713;-81
2023/06/21 11:55:53;;;;;;;3.60;2.55;;;;;;;26.09;51.89;100231.94;10140428;28;96767;-82
2023/06/21 12:00:57;;;;;;;2.78;2.17;;;;;;;26.04;51.92;100234.25;10140890;28;97063;-82
2023/06/21 12:06:03;;;;;;;4.97;2.30;;;;;;;26.68;50.88;100237.31;10139369;28;96714;-81
2023/06/21 12:11:08;;;;;;;3.35;2.13;;;;;;;26.86;49.38;100232.66;10140235;28;97035;-81
2023/06/21 12:16:11;;;;;;;3.83;2.15;;;;;;;26.96;49.72;100232.50;10139854;28;96991;-81
2023/06/21 12:21:16;;;;;;;2.60;1.77;;;;;;;27.06;49.40;100225.09;10139978;28;96913;-81
2023/06/21 12:26:21;;;;;;;3.72;2.35;;;;;;;27.01;49.21;100217.47;10139925;28;96817;-81
2023/06/21 12:31:30;;;;;;;2.40;2.00;;;;;;;27.04;48.30;100213.66;10139823;28;96593;-81
2023/06/21 12:36:36;;;;;;;3.17;2.20;;;;;;;27.64;48.05;100214.16;10139333;28;96549;-81
2023/06/21 12:41:41;;;;;;;3.08;1.92;;;;;;;27.90;47.53;100210.28;10139974;28;96912;-81
2023/06/21 12:47:02;;;;;;;3.75;2.00;;;;;;;27.48;47.19;100223.13;10138327;28;96823;-81
2023/06/21 12:52:28;;;;;;;3.97;2.05;;;;;;;26.89;47.64;100215.25;10133208;28;97066;-81
2023/06/21 12:57:32;;;;;;;2.75;1.73;;;;;;;26.86;48.81;100221.00;10137591;28;96866;-81
2023/06/21 13:02:36;;;;;;;3.28;2.25;;;;;;;26.39;48.65;100220.66;10138764;28;96832;-81
2023/06/21 13:07:41;;;;;;;3.72;2.17;;;;;;;26.47;49.07;100219.88;10138726;28;96829;-81
2023/06/21 13:12:44;;;;;;;3.08;2.35;;;;;;;26.70;48.86;100223.63;10137919;28;96771;-81
2023/06/21 13:17:48;;;;;;;4.07;2.17;;;;;;;26.92;48.64;100223.88;10137818;28;96869;-81
2023/06/21 13:22:53;;;;;;;4.82;2.30;;;;;;;26.89;48.88;100221.50;10137675;28;96776;-81
2023/06/21 13:27:57;;;;;;;3.58;2.40;;;;;;;26.95;48.92;100220.88;10138163;28;97107;-81
2023/06/21 13:33:00;;;;;;;;;;;;;;;26.95;48.22;100228.97;10138961;28;96704;-81
2023/06/21 13:38:05;;;;;;;3.70;2.03;;;;;;;27.04;48.93;100226.31;10137631;28;96766;-81
2023/06/21 13:43:08;;;;;;;3.17;2.13;;;;;;;27.03;49.05;100233.56;10137333;28;96937;-81
2023/06/21 13:48:12;;;;;;;2.60;2.00;;;;;;;26.99;48.50;100224.09;10135990;28;96775;-81
2023/06/21 13:53:17;;;;;;;;;;;;;;;26.81;48.10;100226.03;10137681;28;96777;-81
2023/06/21 13:58:21;;;;;;;2.50;1.73;;;;;;;26.77;49.03;100230.94;10137142;28;96827;-81
2023/06/21 14:03:42;;;;;;;3.33;2.20;;;;;;;26.82;48.75;100228.59;10134774;28;96611;-81
2023/06/21 14:08:47;;;;;;;3.53;2.08;;;;;;;26.88;48.70;100227.94;10136915;28;96843;-81
2023/06/21 14:14:09;;;;;;;2.25;1.73;;;;;;;27.06;48.29;100232.41;10132273;28;96964;-81
2023/06/21 14:19:12;;;;;;;2.53;1.63;;;;;;;26.94;49.34;100221.00;10136482;28;96675;-81
2023/06/21 14:24:17;;;;;;;2.80;2.00;;;;;;;26.78;49.22;100224.50;10137043;28;96714;-81
2023/06/21 14:29:44;;;;;;;3.67;2.30;;;;;;;27.06;49.18;100222.41;10136187;28;96767;-81
2023/06/21 14:34:47;;;;;;;4.40;2.03;;;;;;;26.91;49.70;100227.59;10135974;28;96775;-81
2023/06/21 14:40:10;;;;;;;3.50;2.10;;;;;;;26.66;49.49;100225.81;10129017;28;97114;-81
2023/06/21 14:45:14;;;;;;;3.20;2.28;;;;;;;26.54;49.53;100224.44;10135445;28;96849;-81
2023/06/21 14:50:17;;;;;;;3.45;2.00;;;;;;;26.37;49.64;100222.69;10134049;28;96784;-81
2023/06/21 14:55:22;;;;;;;2.72;1.80;;;;;;;26.23;50.06;100227.81;10135521;28;96788;-81
2023/06/21 15:00:25;;;;;;;3.53;2.33;;;;;;;26.06;50.58;100232.25;10135479;28;96659;-81
2023/06/21 15:05:29;;;;;;;5.72;2.88;;;;;;;26.14;51.17;100239.56;10135488;28;96702;-81
2023/06/21 15:10:35;;;;;;;4.93;2.45;;;;;;;26.26;50.50;100235.59;10135024;28;96765;-81
2023/06/21 15:15:39;;;;;;;2.95;2.30;;;;;;;26.29;50.54;100237.94;10138718;23;97195;-81
2023/06/21 15:20:43;;;;;;;4.28;2.90;;;;;;;26.33;50.29;100236.63;10141833;28;96922;-81
2023/06/21 15:25:48;;;;;;;3.70;2.50;;;;;;;26.27;50.89;100231.88;10141469;28;96656;-81
2023/06/21 15:30:52;;;;;;;4.05;2.38;;;;;;;25.83;52.21;100236.50;10141190;28;96837;-81
2023/06/21 15:35:55;;;;;;;4.47;2.83;;;;;;;25.51;52.54;100233.50;10141257;28;96696;-81
2023/06/21 15:41:00;;;;;;;5.55;3.10;;;;;;;25.36;53.46;100240.47;10141294;28;97341;-82
2023/06/21 15:46:21;;;;;;;3.83;2.60;;;;;;;25.05;54.01;100242.72;10140148;28;96862;-81
2023/06/21 15:51:24;;;;;;;5.63;2.80;;;;;;;25.08;53.78;100236.16;10141079;28;97173;-81
2023/06/21 15:56:29;;;;;;;5.82;2.92;;;;;;;25.12;54.03;100246.44;10140452;28;96885;-81
2023/06/21 16:01:33;;;;;;;4.82;2.97;;;;;;;25.40;54.23;100250.78;10140200;28;96821;-81
2023/06/21 16:06:36;;;;;;;3.55;2.50;;;;;;;26.20;53.29;100255.09;10141132;28;96625;-81
2023/06/21 16:11:41;;;;;;;4.30;2.60;;;;;;;26.36;53.49;100264.19;10140238;28;97460;-81
2023/06/21 16:16:44;;;;;;;4.28;2.78;;;;;;;26.47;53.59;100260.34;10139494;28;97213;-81
2023/06/21 16:21:48;;;;;;;4.57;2.78;;;;;;;26.50;53.30;100257.31;10138914;28;97299;-81
2023/06/21 16:27:11;;;;;;;3.38;2.33;;;;;;;26.07;53.31;100262.78;10135223;28;97004;-81
2023/06/21 16:32:15;;;;;;;4.22;2.53;;;;;;;25.80;54.02;100267.31;10139304;28;96715;-81
2023/06/21 16:37:18;;;;;;;4.30;2.50;;;;;;;25.62;54.10;100262.94;10139271;28;96684;-81
2023/06/21 16:42:24;;;;;;;3.90;2.40;;;;;;;25.51;54.18;100255.06;10139248;28;96917;-81
2023/06/21 16:47:28;;;;;;;3.95;2.00;;;;;;;25.46;53.87;100257.41;10139033;28;96880;-81
2023/06/21 16:52:31;;;;;;;4.10;2.87;;;;;;;25.43;53.86;100260.41;10139061;28;96633;-81
2023/06/21 16:57:36;;;;;;;3.33;2.20;;;;;;;25.26;53.61;100253.19;10139736;28;97029;-81
2023/06/21 17:02:40;;;;;;;3.30;2.20;;;;;;;25.27;53.27;100254.84;10139182;28;96995;-81
2023/06/21 17:07:43;;;;;;;2.65;2.05;;;;;;;25.31;53.01;100249.00;10138340;28;96810;-81
2023/06/21 17:12:48;;;;;;;3.47;2.30;;;;;;;25.67;52.35;100248.00;10137871;28;97269;-81
2023/06/21 17:17:51;;;;;;;3.30;2.75;;;;;;;26.12;51.63;100247.81;10138037;28;96784;-81
2023/06/21 17:22:54;;;;;;;2.58;1.75;;;;;;;25.98;51.07;100243.00;10138258;28;96797;-81
2023/06/21 17:27:59;;;;;;;3.03;1.87;;;;;;;25.98;50.66;100253.78;10137904;28;97195;-81
2023/06/21 17:33:02;;;;;;;2.42;1.75;;;;;;;26.03;50.53;100254.16;10137727;28;97194;-81
2023/06/21 17:38:07;;;;;;;2.97;2.03;;;;;;;25.75;50.78;100258.00;10137530;28;96829;-81
2023/06/21 17:43:29;;;;;;;3.15;2.20;;;;;;;25.71;50.97;100280.91;10136878;28;97312;-81
2023/06/21 17:48:32;;;;;;;3.20;2.17;;;;;;;25.63;51.38;100275.38;10136635;28;96713;-81
2023/06/21 17:53:36;;;;;;;3.38;1.95;;;;;;;25.44;51.36;100280.94;10137213;28;96676;-81
2023/06/21 17:58:40;;;;;;;2.63;2.13;;;;;;;25.36;51.50;100278.19;10136524;28;97104;-81
2023/06/21 18:03:44;;;;;;;2.88;1.88;;;;;;;25.17;51.50;100294.50;10135998;28;96911;-81
2023/06/21 18:08:47;;;;;;;3.85;2.00;;;;;;;25.04;51.45;100292.16;10137003;28;97209;-81
2023/06/21 18:13:52;;;;;;;3.37;2.00;;;;;;;25.05;51.77;100295.72;10135950;28;96792;-81
2023/06/21 18:18:55;;;;;;;2.85;2.00;;;;;;;25.15;51.75;100294.66;10136483;28;97023;-81
2023/06/21 18:23:58;;;;;;;2.90;1.90;;;;;;;25.08;51.78;100298.94;10136186;28;96780;-81
2023/06/21 18:29:04;;;;;;;2.60;1.63;;;;;;;25.04;52.22;100304.75;10136522;28;96703;-81
2023/06/21 18:34:08;;;;;;;3.45;2.00;;;;;;;25.07;51.92;100312.56;10136277;28;96716;-81
2023/06/21 18:39:11;;;;;;;;;;;;;;;24.98;51.58;100302.66;10137662;28;97024;-81
2023/06/21 18:44:16;;;;;;;2.85;1.65;;;;;;;24.89;51.33;100312.50;10136122;28;98977;-81
2023/06/21 18:49:20;;;;;;;2.90;1.45;;;;;;;24.80;50.88;100313.38;10136079;28;97012;-81
2023/06/21 18:54:24;;;;;;;2.90;1.52;;;;;;;24.54;50.53;100315.91;10140931;28;97199;-81
2023/06/21 18:59:29;;;;;;;4.03;1.67;;;;;;;24.41;51.16;100315.38;10142535;28;96808;-81
2023/06/21 19:04:32;;;;;;;2.95;1.70;;;;;;;24.19;51.91;100328.28;10142150;28;96779;-81
2023/06/21 19:09:40;;;;;;;2.92;1.75;;;;;;;23.98;52.85;100333.84;10142494;28;98359;-81
2023/06/21 19:14:45;;;;;;;3.60;2.08;;;;;;;23.91;53.83;100331.91;10141192;28;96837;-81
2023/06/21 19:19:48;;;;;;;3.80;1.85;;;;;;;23.75;54.57;100345.91;10141908;28;96575;-81
2023/06/21 19:24:52;;;;;;;3.43;2.00;;;;;;;23.57;55.43;100345.78;10141708;28;97071;-81
2023/06/21 19:29:57;;;;;;;2.83;2.20;;;;;;;23.44;56.53;100363.13;10142474;28;96783;-81
2023/06/21 19:35:00;;;;;;;3.08;1.88;;;;;;;23.34;56.49;100370.28;10141434;28;96676;-81
2023/06/21 19:40:04;;;;;;;3.83;2.17;;;;;;;23.19;57.47;100377.06;10141096;28;97473;-81
2023/06/21 19:45:10;;;;;;;4.05;2.13;;;;;;;23.11;57.90;100380.41;10139821;28;97144;-81
2023/06/21 19:50:13;;;;;;;3.33;2.10;;;;;;;23.08;57.94;100380.69;10132735;28;97527;-81
2023/06/21 19:55:17;;;;;;;2.77;1.90;;;;;;;22.94;58.30;100382.91;10101286;28;97387;-81
2023/06/21 20:00:23;;;;;;;3.30;2.37;;;;;;;22.88;58.80;100388.81;10126241;28;96661;-81
2023/06/21 20:05:27;;;;;;;2.85;2.10;;;;;;;22.71;59.56;100392.97;10140341;28;97134;-81
2023/06/21 20:10:30;;;;;;;4.68;2.60;;;;;;;22.55;59.83;100398.81;10140633;28;96873;-81
2023/06/21 20:15:35;;;;;;;3.77;2.60;;;;;;;22.54;60.04;100399.78;10139267;28;96816;-81
2023/06/21 20:20:43;;;;;;;5.68;2.55;;;;;;;22.34;60.94;100411.38;10141352;28;96943;-81
2023/06/21 20:25:46;;;;;;;4.18;2.70;;;;;;;22.29;61.34;100410.06;10139847;28;96808;-81
2023/06/21 20:30:51;;;;;;;6.20;2.80;;;;;;;22.26;61.54;100416.53;10139769;28;96625;-81
2023/06/21 20:35:54;;;;;;;3.28;2.53;;;;;;;22.20;61.84;100425.09;10138531;28;97377;-81
2023/06/21 20:40:59;;;;;;;3.90;2.47;;;;;;;22.20;61.70;100434.97;10139736;28;96711;-81
2023/06/21 20:46:08;;;;;;;3.90;2.67;;;;;;;22.14;61.83;100446.22;10139051;28;96744;-81
2023/06/21 20:51:11;;;;;;;4.43;2.78;;;;;;;22.09;62.09;100453.81;10138235;28;96894;-81
2023/06/21 20:56:15;;;;;;;3.83;2.45;;;;;;;22.02;62.41;100464.16;10138773;28;96801;-81
2023/06/21 21:01:20;;;;;;;4.07;3.03;;;;;;;21.96;62.99;100479.88;10139035;28;96692;-81
2023/06/21 21:06:24;;;;;;;4.55;2.55;;;;;;;21.91;62.67;100491.00;10138676;28;96820;-81
2023/06/21 21:11:28;;;;;;;;;;;;;;;21.80;63.43;100493.69;10139453;28;96859;-81
2023/06/21 21:16:33;;;;;;;3.92;2.58;;;;;;;21.67;63.80;100506.41;10137523;28;97088;-81
2023/06/21 21:21:37;;;;;;;6.88;2.97;;;;;;;21.59;63.74;100513.34;10138320;28;96667;-81
2023/06/21 21:26:40;;;;;;;3.83;2.57;;;;;;;21.62;63.53;100522.00;10136864;28;96702;-81
2023/06/21 21:31:51;;;;;;;5.95;3.13;;;;;;;21.48;63.93;100530.28;10138142;28;96722;-81
2023/06/21 21:36:56;;;;;;;4.50;2.90;;;;;;;21.34;64.56;100531.38;10137480;28;96651;-81
2023/06/21 21:42:00;;;;;;;5.30;2.78;;;;;;;21.34;64.82;100539.41;10137485;28;97669;-81
2023/06/21 21:47:05;;;;;;;5.45;2.97;;;;;;;21.30;64.95;100550.47;10136896;28;97016;-81
2023/06/21 21:52:08;;;;;;;5.75;3.05;;;;;;;21.24;65.09;100553.66;10137260;28;96709;-81
2023/06/21 21:57:12;;;;;;;4.73;2.67;;;;;;;21.34;64.69;100558.16;10136847;28;96864;-81
2023/06/21 22:02:17;;;;;;;4.50;2.70;;;;;;;21.34;64.66;100565.31;10137700;28;96667;-81
2023/06/21 22:07:22;;;;;;;3.75;2.58;;;;;;;21.42;64.14;100554.84;10136820;28;97500;-81
2023/06/21 22:12:25;;;;;;;4.25;2.53;;;;;;;21.38;64.64;100553.41;10136784;28;97061;-81
2023/06/21 22:17:30;;;;;;;5.45;2.90;;;;;;;21.33;64.65;100568.97;10134904;28;96877;-81
2023/06/21 22:22:34;;;;;;;4.97;2.63;;;;;;;21.28;64.95;100568.47;10136885;28;97051;-81
2023/06/21 22:27:37;;;;;;;4.38;2.92;;;;;;;21.15;65.22;100576.59;10136046;28;97077;-81
2023/06/21 22:32:42;;;;;;;5.25;2.70;;;;;;;21.15;65.29;100565.03;10136282;28;96632;-81
2023/06/21 22:37:46;;;;;;;4.45;2.40;;;;;;;21.21;65.18;100577.94;10136243;28;96834;-81
2023/06/21 22:42:49;;;;;;;5.00;2.63;;;;;;;21.08;65.35;100588.75;10135658;28;96884;-81
2023/06/21 22:47:54;;;;;;;4.28;2.28;;;;;;;21.02;65.07;100585.69;10136242;28;96868;-81
2023/06/21 22:52:59;;;;;;;3.70;2.35;;;;;;;20.90;65.60;100582.13;10136521;28;96708;-81
2023/06/21 22:58:03;;;;;;;4.35;2.53;;;;;;;20.92;65.59;100596.25;10135521;28;96825;-81
2023/06/21 23:03:08;;;;;;;3.53;2.40;;;;;;;20.70;66.19;100590.84;10135406;28;97028;-81
2023/06/21 23:08:12;;;;;;;3.78;2.50;;;;;;;20.52;66.02;100594.88;10134252;28;96654;-81
2023/06/21 23:13:15;;;;;;;4.15;2.42;;;;;;;20.52;65.90;100592.22;10134970;28;96993;-81
2023/06/21 23:18:20;;;;;;;4.27;2.70;;;;;;;20.45;65.73;100603.47;10134894;28;96719;-81
2023/06/21 23:23:24;;;;;;;5.20;2.80;;;;;;;20.49;65.61;100604.97;10135089;28;96765;-81
2023/06/21 23:28:30;;;;;;;3.77;2.30;;;;;;;20.16;66.61;100608.28;10134915;28;96968;-81
2023/06/21 23:33:40;;;;;;;4.20;2.63;;;;;;;20.27;66.55;100608.34;10134661;28;96706;-81